sensor_id;sensor_type;location;lat;lon;timestamp;temperature;humidity
28761;DHT22;15917;50.014;8.352;2023-07-24T00:02:18;21.60;99.90
28761;DHT22;15917;50.014;8.352;2023-07-24T00:04:44;21.60;99.90
28761;DHT22;15917;50.014;8.352;2023-07-24T00:07:09;21.60;99.90
28761;DHT22;15917;50.014;8.352;2023-07-24T00:09:35;21.60;99.90
28761;DHT22;15917;50.014;8.352;2023-07-24T00:12:00;21.50;99.90
28761;DHT22;15917;50.014;8.352;2023-07-24T00:14:26;21.50;99.90
28761;DHT22;15917;50.014;8.352;2023-07-24T00:16:55;21.50;99.90
28761;DHT22;15917;50.014;8.352;2023-07-24T00:19:24;21.50;99.90
28761;DHT22;15917;50.014;8.352;2023-07-24T00:21:50;21.50;99.90
28761;DHT22;15917;50.014;8.352;2023-07-24T00:24:15;21.50;99.90
28761;DHT22;15917;50.014;8.352;2023-07-24T00:26:41;21.50;99.90
28761;DHT22;15917;50.014;8.352;2023-07-24T00:29:07;21.50;99.90
28761;DHT22;15917;50.014;8.352;2023-07-24T00:31:34;21.50;99.90
28761;DHT22;15917;50.014;8.352;2023-07-24T00:34:04;21.50;99.90
28761;DHT22;15917;50.014;8.352;2023-07-24T00:36:29;21.50;99.90
28761;DHT22;15917;50.014;8.352;2023-07-24T00:38:55;21.50;99.90
28761;DHT22;15917;50.014;8.352;2023-07-24T00:41:20;21.50;99.90
28761;DHT22;15917;50.014;8.352;2023-07-24T00:43:46;21.50;99.90
28761;DHT22;15917;50.014;8.352;2023-07-24T00:46:13;21.50;99.90
28761;DHT22;15917;50.014;8.352;2023-07-24T00:48:40;21.50;99.90
28761;DHT22;15917;50.014;8.352;2023-07-24T00:51:07;21.50;99.90
28761;DHT22;15917;50.014;8.352;2023-07-24T00:53:33;21.50;99.90
28761;DHT22;15917;50.014;8.352;2023-07-24T00:55:59;21.50;99.90
28761;DHT22;15917;50.014;8.352;2023-07-24T00:58:26;21.50;99.90
28761;DHT22;15917;50.014;8.352;2023-07-24T01:00:52;21.50;99.90
28761;DHT22;15917;50.014;8.352;2023-07-24T01:03:18;21.50;99.90
28761;DHT22;15917;50.014;8.352;2023-07-24T01:05:43;21.50;99.90
28761;DHT22;15917;50.014;8.352;2023-07-24T01:08:09;21.50;99.90
28761;DHT22;15917;50.014;8.352;2023-07-24T01:10:34;21.50;99.90
28761;DHT22;15917;50.014;8.352;2023-07-24T01:13:16;21.50;99.90
28761;DHT22;15917;50.014;8.352;2023-07-24T01:15:54;21.50;99.90
28761;DHT22;15917;50.014;8.352;2023-07-24T01:18:22;21.50;99.90
28761;DHT22;15917;50.014;8.352;2023-07-24T01:20:55;21.50;99.90
28761;DHT22;15917;50.014;8.352;2023-07-24T01:23:45;21.50;99.90
28761;DHT22;15917;50.014;8.352;2023-07-24T01:26:16;21.50;99.90
28761;DHT22;15917;50.014;8.352;2023-07-24T01:28:43;21.50;99.90
28761;DHT22;15917;50.014;8.352;2023-07-24T01:31:08;21.40;99.90
28761;DHT22;15917;50.014;8.352;2023-07-24T01:33:34;21.40;99.90
28761;DHT22;15917;50.014;8.352;2023-07-24T01:36:02;21.40;99.90
28761;DHT22;15917;50.014;8.352;2023-07-24T01:38:28;21.30;99.90
28761;DHT22;15917;50.014;8.352;2023-07-24T01:40:55;21.30;99.90
28761;DHT22;15917;50.014;8.352;2023-07-24T01:43:22;21.30;99.90
28761;DHT22;15917;50.014;8.352;2023-07-24T01:45:47;21.30;99.90
28761;DHT22;15917;50.014;8.352;2023-07-24T01:48:13;21.30;99.90
28761;DHT22;15917;50.014;8.352;2023-07-24T01:50:39;21.20;99.90
28761;DHT22;15917;50.014;8.352;2023-07-24T01:53:04;21.20;99.90
28761;DHT22;15917;50.014;8.352;2023-07-24T01:55:30;21.20;99.90
28761;DHT22;15917;50.014;8.352;2023-07-24T01:57:56;21.10;99.90
28761;DHT22;15917;50.014;8.352;2023-07-24T02:00:21;21.10;99.90
28761;DHT22;15917;50.014;8.352;2023-07-24T02:02:56;21.10;99.90
28761;DHT22;15917;50.014;8.352;2023-07-24T02:05:22;21.10;99.90
28761;DHT22;15917;50.014;8.352;2023-07-24T02:07:48;21.20;99.90
28761;DHT22;15917;50.014;8.352;2023-07-24T02:10:14;21.10;99.90
28761;DHT22;15917;50.014;8.352;2023-07-24T02:12:39;21.10;99.90
28761;DHT22;15917;50.014;8.352;2023-07-24T02:15:06;21.10;99.90
28761;DHT22;15917;50.014;8.352;2023-07-24T02:17:31;21.00;99.90
28761;DHT22;15917;50.014;8.352;2023-07-24T02:19:57;21.00;99.90
28761;DHT22;15917;50.014;8.352;2023-07-24T02:22:23;21.00;99.90
28761;DHT22;15917;50.014;8.352;2023-07-24T02:24:48;21.00;99.90
28761;DHT22;15917;50.014;8.352;2023-07-24T02:27:25;20.90;99.90
28761;DHT22;15917;50.014;8.352;2023-07-24T02:29:54;20.90;99.90
28761;DHT22;15917;50.014;8.352;2023-07-24T02:32:20;20.90;99.90
28761;DHT22;15917;50.014;8.352;2023-07-24T02:34:50;20.80;99.90
28761;DHT22;15917;50.014;8.352;2023-07-24T02:37:16;20.80;99.90
28761;DHT22;15917;50.014;8.352;2023-07-24T02:39:41;20.80;99.90
28761;DHT22;15917;50.014;8.352;2023-07-24T02:42:07;20.70;99.90
28761;DHT22;15917;50.014;8.352;2023-07-24T02:44:34;20.60;99.90
28761;DHT22;15917;50.014;8.352;2023-07-24T02:47:01;20.60;99.90
28761;DHT22;15917;50.014;8.352;2023-07-24T02:49:28;20.50;99.90
28761;DHT22;15917;50.014;8.352;2023-07-24T02:51:54;20.40;99.90
28761;DHT22;15917;50.014;8.352;2023-07-24T02:54:19;20.40;99.90
28761;DHT22;15917;50.014;8.352;2023-07-24T02:56:45;20.40;99.90
28761;DHT22;15917;50.014;8.352;2023-07-24T02:59:10;20.40;99.90
28761;DHT22;15917;50.014;8.352;2023-07-24T03:01:36;20.40;99.90
28761;DHT22;15917;50.014;8.352;2023-07-24T03:04:02;20.40;99.90
28761;DHT22;15917;50.014;8.352;2023-07-24T03:06:29;20.40;99.90
28761;DHT22;15917;50.014;8.352;2023-07-24T03:08:55;20.40;99.90
28761;DHT22;15917;50.014;8.352;2023-07-24T03:11:21;20.40;99.90
28761;DHT22;15917;50.014;8.352;2023-07-24T03:13:46;20.30;99.90
28761;DHT22;15917;50.014;8.352;2023-07-24T03:16:12;20.30;99.90
28761;DHT22;15917;50.014;8.352;2023-07-24T03:18:37;20.30;99.90
28761;DHT22;15917;50.014;8.352;2023-07-24T03:21:03;20.30;99.90
28761;DHT22;15917;50.014;8.352;2023-07-24T03:23:29;20.30;99.90
28761;DHT22;15917;50.014;8.352;2023-07-24T03:25:55;20.30;99.90
28761;DHT22;15917;50.014;8.352;2023-07-24T03:28:21;20.30;99.90
28761;DHT22;15917;50.014;8.352;2023-07-24T03:30:46;20.30;99.90
28761;DHT22;15917;50.014;8.352;2023-07-24T03:33:12;20.30;99.90
28761;DHT22;15917;50.014;8.352;2023-07-24T03:35:38;20.30;99.90
28761;DHT22;15917;50.014;8.352;2023-07-24T03:38:05;20.30;99.90
28761;DHT22;15917;50.014;8.352;2023-07-24T03:40:32;20.30;99.90
28761;DHT22;15917;50.014;8.352;2023-07-24T03:42:57;20.30;99.90
28761;DHT22;15917;50.014;8.352;2023-07-24T03:45:23;20.30;99.90
28761;DHT22;15917;50.014;8.352;2023-07-24T03:47:49;20.30;99.90
28761;DHT22;15917;50.014;8.352;2023-07-24T03:50:14;20.30;99.90
28761;DHT22;15917;50.014;8.352;2023-07-24T03:52:40;20.30;99.90
28761;DHT22;15917;50.014;8.352;2023-07-24T03:55:06;20.30;99.90
28761;DHT22;15917;50.014;8.352;2023-07-24T03:57:33;20.20;99.90
28761;DHT22;15917;50.014;8.352;2023-07-24T03:59:58;20.20;99.90
28761;DHT22;15917;50.014;8.352;2023-07-24T04:02:24;20.10;99.90
28761;DHT22;15917;50.014;8.352;2023-07-24T04:04:50;20.00;99.90
28761;DHT22;15917;50.014;8.352;2023-07-24T04:07:15;20.00;99.90
28761;DHT22;15917;50.014;8.352;2023-07-24T04:09:41;19.90;99.90
28761;DHT22;15917;50.014;8.352;2023-07-24T04:12:06;20.00;99.90
28761;DHT22;15917;50.014;8.352;2023-07-24T04:14:32;20.00;99.90
28761;DHT22;15917;50.014;8.352;2023-07-24T04:16:58;19.90;99.90
28761;DHT22;15917;50.014;8.352;2023-07-24T04:19:23;19.90;99.90
28761;DHT22;15917;50.014;8.352;2023-07-24T04:21:49;19.90;99.90
28761;DHT22;15917;50.014;8.352;2023-07-24T04:24:15;19.90;99.90
28761;DHT22;15917;50.014;8.352;2023-07-24T04:26:40;19.80;99.90
28761;DHT22;15917;50.014;8.352;2023-07-24T04:29:06;19.80;99.90
28761;DHT22;15917;50.014;8.352;2023-07-24T04:31:32;19.80;99.90
28761;DHT22;15917;50.014;8.352;2023-07-24T04:33:58;19.80;99.90
28761;DHT22;15917;50.014;8.352;2023-07-24T04:36:23;19.80;99.90
28761;DHT22;15917;50.014;8.352;2023-07-24T04:38:49;19.90;99.90
28761;DHT22;15917;50.014;8.352;2023-07-24T04:41:15;19.90;99.90
28761;DHT22;15917;50.014;8.352;2023-07-24T04:43:40;19.80;99.90
28761;DHT22;15917;50.014;8.352;2023-07-24T04:46:06;19.80;99.90
28761;DHT22;15917;50.014;8.352;2023-07-24T04:48:31;19.70;99.90
28761;DHT22;15917;50.014;8.352;2023-07-24T04:50:57;19.60;99.90
28761;DHT22;15917;50.014;8.352;2023-07-24T04:53:23;19.70;99.90
28761;DHT22;15917;50.014;8.352;2023-07-24T04:55:49;19.60;99.90
28761;DHT22;15917;50.014;8.352;2023-07-24T04:58:15;19.60;99.90
28761;DHT22;15917;50.014;8.352;2023-07-24T05:00:41;19.60;99.90
28761;DHT22;15917;50.014;8.352;2023-07-24T05:03:06;19.70;99.90
28761;DHT22;15917;50.014;8.352;2023-07-24T05:05:39;19.60;99.90
28761;DHT22;15917;50.014;8.352;2023-07-24T05:08:05;19.70;99.90
28761;DHT22;15917;50.014;8.352;2023-07-24T05:10:36;19.80;99.90
28761;DHT22;15917;50.014;8.352;2023-07-24T05:13:02;19.80;99.90
28761;DHT22;15917;50.014;8.352;2023-07-24T05:15:28;19.90;99.90
28761;DHT22;15917;50.014;8.352;2023-07-24T05:17:53;19.90;99.90
28761;DHT22;15917;50.014;8.352;2023-07-24T05:20:19;20.00;99.90
28761;DHT22;15917;50.014;8.352;2023-07-24T05:22:44;20.10;99.90
28761;DHT22;15917;50.014;8.352;2023-07-24T05:25:10;20.20;99.90
28761;DHT22;15917;50.014;8.352;2023-07-24T05:27:35;20.30;99.90
28761;DHT22;15917;50.014;8.352;2023-07-24T05:30:02;20.50;99.90
28761;DHT22;15917;50.014;8.352;2023-07-24T05:32:27;20.60;99.90
28761;DHT22;15917;50.014;8.352;2023-07-24T05:34:53;20.70;99.90
28761;DHT22;15917;50.014;8.352;2023-07-24T05:37:18;21.00;99.90
28761;DHT22;15917;50.014;8.352;2023-07-24T05:39:44;21.10;99.90
28761;DHT22;15917;50.014;8.352;2023-07-24T05:42:09;21.20;99.90
28761;DHT22;15917;50.014;8.352;2023-07-24T05:44:35;21.20;99.90
28761;DHT22;15917;50.014;8.352;2023-07-24T05:47:02;21.20;99.90
28761;DHT22;15917;50.014;8.352;2023-07-24T05:49:28;21.30;99.90
28761;DHT22;15917;50.014;8.352;2023-07-24T05:51:54;21.50;99.90
28761;DHT22;15917;50.014;8.352;2023-07-24T05:54:19;21.70;99.90
28761;DHT22;15917;50.014;8.352;2023-07-24T05:56:45;21.70;99.90
28761;DHT22;15917;50.014;8.352;2023-07-24T05:59:11;21.70;99.90
28761;DHT22;15917;50.014;8.352;2023-07-24T06:01:36;21.80;99.90
28761;DHT22;15917;50.014;8.352;2023-07-24T06:04:02;21.80;99.90
28761;DHT22;15917;50.014;8.352;2023-07-24T06:06:27;21.80;99.90
28761;DHT22;15917;50.014;8.352;2023-07-24T06:08:54;21.70;99.90
28761;DHT22;15917;50.014;8.352;2023-07-24T06:11:19;21.70;99.90
28761;DHT22;15917;50.014;8.352;2023-07-24T06:13:45;21.60;99.90
28761;DHT22;15917;50.014;8.352;2023-07-24T06:16:10;21.60;99.90
28761;DHT22;15917;50.014;8.352;2023-07-24T06:18:38;21.70;99.90
28761;DHT22;15917;50.014;8.352;2023-07-24T06:21:03;21.70;99.90
28761;DHT22;15917;50.014;8.352;2023-07-24T06:23:29;21.80;99.90
28761;DHT22;15917;50.014;8.352;2023-07-24T06:25:54;21.90;99.90
28761;DHT22;15917;50.014;8.352;2023-07-24T06:28:21;22.00;99.90
28761;DHT22;15917;50.014;8.352;2023-07-24T06:30:46;22.00;99.90
28761;DHT22;15917;50.014;8.352;2023-07-24T06:33:12;22.10;99.90
28761;DHT22;15917;50.014;8.352;2023-07-24T06:35:38;22.00;99.90
28761;DHT22;15917;50.014;8.352;2023-07-24T06:38:04;22.10;99.90
28761;DHT22;15917;50.014;8.352;2023-07-24T06:40:29;22.20;99.90
28761;DHT22;15917;50.014;8.352;2023-07-24T06:42:55;22.20;99.90
28761;DHT22;15917;50.014;8.352;2023-07-24T06:45:20;22.20;99.90
28761;DHT22;15917;50.014;8.352;2023-07-24T06:47:46;22.20;99.90
28761;DHT22;15917;50.014;8.352;2023-07-24T06:50:12;22.20;99.90
28761;DHT22;15917;50.014;8.352;2023-07-24T06:52:37;22.20;99.90
28761;DHT22;15917;50.014;8.352;2023-07-24T06:55:03;22.10;99.90
28761;DHT22;15917;50.014;8.352;2023-07-24T06:57:29;22.10;99.90
28761;DHT22;15917;50.014;8.352;2023-07-24T06:59:55;22.10;99.90
28761;DHT22;15917;50.014;8.352;2023-07-24T07:02:20;22.20;99.90
28761;DHT22;15917;50.014;8.352;2023-07-24T07:04:46;22.20;99.90
28761;DHT22;15917;50.014;8.352;2023-07-24T07:07:12;22.30;99.90
28761;DHT22;15917;50.014;8.352;2023-07-24T07:09:37;22.40;99.90
28761;DHT22;15917;50.014;8.352;2023-07-24T07:12:03;22.40;99.90
28761;DHT22;15917;50.014;8.352;2023-07-24T07:14:29;22.50;99.90
28761;DHT22;15917;50.014;8.352;2023-07-24T07:16:54;22.50;99.90
28761;DHT22;15917;50.014;8.352;2023-07-24T07:19:20;22.40;99.90
28761;DHT22;15917;50.014;8.352;2023-07-24T07:21:46;22.40;99.90
28761;DHT22;15917;50.014;8.352;2023-07-24T07:24:30;22.40;99.90
28761;DHT22;15917;50.014;8.352;2023-07-24T07:26:55;22.30;99.90
28761;DHT22;15917;50.014;8.352;2023-07-24T07:29:21;22.30;99.90
28761;DHT22;15917;50.014;8.352;2023-07-24T07:31:47;22.20;99.90
28761;DHT22;15917;50.014;8.352;2023-07-24T07:34:12;22.30;99.90
28761;DHT22;15917;50.014;8.352;2023-07-24T07:36:38;22.30;99.90
28761;DHT22;15917;50.014;8.352;2023-07-24T07:39:03;22.30;99.90
28761;DHT22;15917;50.014;8.352;2023-07-24T07:41:29;22.40;99.90
28761;DHT22;15917;50.014;8.352;2023-07-24T07:43:55;22.30;99.90
28761;DHT22;15917;50.014;8.352;2023-07-24T07:46:20;22.40;99.90
28761;DHT22;15917;50.014;8.352;2023-07-24T07:48:46;22.40;99.90
28761;DHT22;15917;50.014;8.352;2023-07-24T07:51:12;22.40;99.90
28761;DHT22;15917;50.014;8.352;2023-07-24T07:53:37;22.50;99.90
28761;DHT22;15917;50.014;8.352;2023-07-24T07:56:06;22.50;99.90
28761;DHT22;15917;50.014;8.352;2023-07-24T07:58:32;22.50;99.90
28761;DHT22;15917;50.014;8.352;2023-07-24T08:00:58;22.50;99.90
28761;DHT22;15917;50.014;8.352;2023-07-24T08:03:24;22.50;99.90
28761;DHT22;15917;50.014;8.352;2023-07-24T08:05:49;22.50;99.90
28761;DHT22;15917;50.014;8.352;2023-07-24T08:08:15;22.60;99.90
28761;DHT22;15917;50.014;8.352;2023-07-24T08:10:41;22.70;99.90
28761;DHT22;15917;50.014;8.352;2023-07-24T08:13:06;22.70;99.90
28761;DHT22;15917;50.014;8.352;2023-07-24T08:15:36;22.80;99.90
28761;DHT22;15917;50.014;8.352;2023-07-24T08:18:05;22.90;99.90
28761;DHT22;15917;50.014;8.352;2023-07-24T08:20:31;22.90;99.90
28761;DHT22;15917;50.014;8.352;2023-07-24T08:22:57;23.00;99.90
28761;DHT22;15917;50.014;8.352;2023-07-24T08:25:23;23.00;99.90
28761;DHT22;15917;50.014;8.352;2023-07-24T08:27:49;23.00;99.90
28761;DHT22;15917;50.014;8.352;2023-07-24T08:30:14;23.00;99.90
28761;DHT22;15917;50.014;8.352;2023-07-24T08:32:40;23.00;99.90
28761;DHT22;15917;50.014;8.352;2023-07-24T08:35:06;23.20;99.90
28761;DHT22;15917;50.014;8.352;2023-07-24T08:37:31;23.20;99.90
28761;DHT22;15917;50.014;8.352;2023-07-24T08:39:57;23.30;99.90
28761;DHT22;15917;50.014;8.352;2023-07-24T08:42:23;23.40;99.90
28761;DHT22;15917;50.014;8.352;2023-07-24T08:44:50;23.40;99.90
28761;DHT22;15917;50.014;8.352;2023-07-24T08:47:17;23.60;99.90
28761;DHT22;15917;50.014;8.352;2023-07-24T08:49:44;23.60;99.90
28761;DHT22;15917;50.014;8.352;2023-07-24T08:52:11;23.80;99.90
28761;DHT22;15917;50.014;8.352;2023-07-24T08:54:37;23.90;99.90
28761;DHT22;15917;50.014;8.352;2023-07-24T08:57:06;24.10;99.90
28761;DHT22;15917;50.014;8.352;2023-07-24T08:59:32;24.30;99.90
28761;DHT22;15917;50.014;8.352;2023-07-24T09:01:57;24.40;99.90
28761;DHT22;15917;50.014;8.352;2023-07-24T09:04:24;24.30;99.90
28761;DHT22;15917;50.014;8.352;2023-07-24T09:06:50;24.30;99.90
28761;DHT22;15917;50.014;8.352;2023-07-24T09:09:16;24.20;99.90
28761;DHT22;15917;50.014;8.352;2023-07-24T09:11:52;24.40;99.90
28761;DHT22;15917;50.014;8.352;2023-07-24T09:14:22;24.30;99.90
28761;DHT22;15917;50.014;8.352;2023-07-24T09:16:48;24.30;99.90
28761;DHT22;15917;50.014;8.352;2023-07-24T09:19:18;24.30;99.90
28761;DHT22;15917;50.014;8.352;2023-07-24T09:21:44;24.20;99.90
28761;DHT22;15917;50.014;8.352;2023-07-24T09:24:14;24.10;99.90
28761;DHT22;15917;50.014;8.352;2023-07-24T09:26:47;24.10;99.90
28761;DHT22;15917;50.014;8.352;2023-07-24T09:29:13;24.10;99.90
28761;DHT22;15917;50.014;8.352;2023-07-24T09:31:38;24.00;99.90
28761;DHT22;15917;50.014;8.352;2023-07-24T09:34:16;24.10;99.90
28761;DHT22;15917;50.014;8.352;2023-07-24T09:36:42;24.20;99.90
28761;DHT22;15917;50.014;8.352;2023-07-24T09:39:08;24.30;99.90
28761;DHT22;15917;50.014;8.352;2023-07-24T09:41:39;24.50;99.90
28761;DHT22;15917;50.014;8.352;2023-07-24T09:44:06;24.60;99.90
28761;DHT22;15917;50.014;8.352;2023-07-24T09:46:32;24.60;99.90
28761;DHT22;15917;50.014;8.352;2023-07-24T09:48:58;24.70;99.90
28761;DHT22;15917;50.014;8.352;2023-07-24T09:51:24;24.70;99.90
28761;DHT22;15917;50.014;8.352;2023-07-24T09:53:56;24.70;99.90
28761;DHT22;15917;50.014;8.352;2023-07-24T09:56:23;24.70;99.90
28761;DHT22;15917;50.014;8.352;2023-07-24T09:58:51;24.60;99.90
28761;DHT22;15917;50.014;8.352;2023-07-24T10:01:20;24.60;99.90
28761;DHT22;15917;50.014;8.352;2023-07-24T10:03:47;24.60;99.90
28761;DHT22;15917;50.014;8.352;2023-07-24T10:06:13;24.70;99.90
28761;DHT22;15917;50.014;8.352;2023-07-24T10:08:40;24.70;99.90
28761;DHT22;15917;50.014;8.352;2023-07-24T10:11:11;24.60;99.90
28761;DHT22;15917;50.014;8.352;2023-07-24T10:13:37;24.60;99.90
28761;DHT22;15917;50.014;8.352;2023-07-24T10:16:04;24.60;99.90
28761;DHT22;15917;50.014;8.352;2023-07-24T10:18:33;24.50;99.90
28761;DHT22;15917;50.014;8.352;2023-07-24T10:21:07;24.50;99.90
28761;DHT22;15917;50.014;8.352;2023-07-24T10:23:44;24.60;99.90
28761;DHT22;15917;50.014;8.352;2023-07-24T10:26:11;24.50;99.90
28761;DHT22;15917;50.014;8.352;2023-07-24T10:28:39;24.70;99.90
28761;DHT22;15917;50.014;8.352;2023-07-24T10:31:18;24.70;99.90
28761;DHT22;15917;50.014;8.352;2023-07-24T10:33:45;24.70;99.90
28761;DHT22;15917;50.014;8.352;2023-07-24T10:36:11;24.70;99.90
28761;DHT22;15917;50.014;8.352;2023-07-24T10:38:41;24.70;99.90
28761;DHT22;15917;50.014;8.352;2023-07-24T10:41:08;24.70;99.90
28761;DHT22;15917;50.014;8.352;2023-07-24T10:43:47;24.70;99.90
28761;DHT22;15917;50.014;8.352;2023-07-24T10:46:15;24.80;99.90
28761;DHT22;15917;50.014;8.352;2023-07-24T10:48:46;24.80;99.90
28761;DHT22;15917;50.014;8.352;2023-07-24T10:51:13;24.80;99.90
28761;DHT22;15917;50.014;8.352;2023-07-24T10:53:45;24.80;99.90
28761;DHT22;15917;50.014;8.352;2023-07-24T10:56:11;24.70;99.90
28761;DHT22;15917;50.014;8.352;2023-07-24T10:58:36;24.80;99.90
28761;DHT22;15917;50.014;8.352;2023-07-24T11:01:06;24.90;99.90
28761;DHT22;15917;50.014;8.352;2023-07-24T11:03:35;24.90;99.90
28761;DHT22;15917;50.014;8.352;2023-07-24T11:06:02;25.00;99.90
28761;DHT22;15917;50.014;8.352;2023-07-24T11:08:28;24.90;99.90
28761;DHT22;15917;50.014;8.352;2023-07-24T11:10:57;24.80;99.90
28761;DHT22;15917;50.014;8.352;2023-07-24T11:13:25;24.90;99.90
28761;DHT22;15917;50.014;8.352;2023-07-24T11:15:51;24.90;99.90
28761;DHT22;15917;50.014;8.352;2023-07-24T11:18:18;24.90;99.90
28761;DHT22;15917;50.014;8.352;2023-07-24T11:20:48;25.00;99.90
28761;DHT22;15917;50.014;8.352;2023-07-24T11:23:14;25.10;99.90
28761;DHT22;15917;50.014;8.352;2023-07-24T11:25:40;25.30;99.90
28761;DHT22;15917;50.014;8.352;2023-07-24T11:28:11;25.40;99.90
28761;DHT22;15917;50.014;8.352;2023-07-24T11:30:38;25.50;99.90
28761;DHT22;15917;50.014;8.352;2023-07-24T11:33:05;25.70;99.90
28761;DHT22;15917;50.014;8.352;2023-07-24T11:35:31;25.80;99.90
28761;DHT22;15917;50.014;8.352;2023-07-24T11:37:57;25.80;99.90
28761;DHT22;15917;50.014;8.352;2023-07-24T11:40:31;25.70;99.90
28761;DHT22;15917;50.014;8.352;2023-07-24T11:42:57;25.80;99.90
28761;DHT22;15917;50.014;8.352;2023-07-24T11:45:23;26.00;99.90
28761;DHT22;15917;50.014;8.352;2023-07-24T11:47:49;26.00;99.90
28761;DHT22;15917;50.014;8.352;2023-07-24T11:50:16;26.00;99.90
28761;DHT22;15917;50.014;8.352;2023-07-24T11:55:31;26.20;99.90
28761;DHT22;15917;50.014;8.352;2023-07-24T11:57:58;26.10;99.90
28761;DHT22;15917;50.014;8.352;2023-07-24T12:00:24;26.10;99.90
28761;DHT22;15917;50.014;8.352;2023-07-24T12:02:50;26.10;99.90
28761;DHT22;15917;50.014;8.352;2023-07-24T12:05:16;26.10;99.90
28761;DHT22;15917;50.014;8.352;2023-07-24T12:07:43;26.30;99.90
28761;DHT22;15917;50.014;8.352;2023-07-24T12:10:12;26.40;99.90
28761;DHT22;15917;50.014;8.352;2023-07-24T12:12:47;26.70;99.90
28761;DHT22;15917;50.014;8.352;2023-07-24T12:15:14;26.90;99.90
28761;DHT22;15917;50.014;8.352;2023-07-24T12:17:40;26.80;99.90
28761;DHT22;15917;50.014;8.352;2023-07-24T12:20:07;27.10;99.90
28761;DHT22;15917;50.014;8.352;2023-07-24T12:22:37;27.20;99.90
28761;DHT22;15917;50.014;8.352;2023-07-24T12:25:04;27.20;99.90
28761;DHT22;15917;50.014;8.352;2023-07-24T12:27:30;27.40;99.90
28761;DHT22;15917;50.014;8.352;2023-07-24T12:29:57;27.60;99.90
28761;DHT22;15917;50.014;8.352;2023-07-24T12:32:23;27.50;99.90
28761;DHT22;15917;50.014;8.352;2023-07-24T12:34:50;27.40;99.90
28761;DHT22;15917;50.014;8.352;2023-07-24T12:37:17;27.50;99.90
28761;DHT22;15917;50.014;8.352;2023-07-24T12:39:45;27.40;99.90
28761;DHT22;15917;50.014;8.352;2023-07-24T12:42:11;27.60;99.90
28761;DHT22;15917;50.014;8.352;2023-07-24T12:44:37;27.70;99.90
28761;DHT22;15917;50.014;8.352;2023-07-24T12:47:03;27.40;99.90
28761;DHT22;15917;50.014;8.352;2023-07-24T12:49:30;27.20;99.90
28761;DHT22;15917;50.014;8.352;2023-07-24T12:51:55;26.90;99.90
28761;DHT22;15917;50.014;8.352;2023-07-24T12:54:21;26.60;99.90
28761;DHT22;15917;50.014;8.352;2023-07-24T12:56:48;26.40;99.90
28761;DHT22;15917;50.014;8.352;2023-07-24T12:59:14;26.20;99.90
28761;DHT22;15917;50.014;8.352;2023-07-24T13:01:39;26.10;99.90
28761;DHT22;15917;50.014;8.352;2023-07-24T13:04:05;26.00;99.90
28761;DHT22;15917;50.014;8.352;2023-07-24T13:06:31;26.00;99.90
28761;DHT22;15917;50.014;8.352;2023-07-24T13:08:56;26.00;99.90
28761;DHT22;15917;50.014;8.352;2023-07-24T13:11:22;26.40;99.90
28761;DHT22;15917;50.014;8.352;2023-07-24T13:13:48;26.60;99.90
28761;DHT22;15917;50.014;8.352;2023-07-24T13:16:16;26.80;99.90
28761;DHT22;15917;50.014;8.352;2023-07-24T13:18:41;27.10;99.90
28761;DHT22;15917;50.014;8.352;2023-07-24T13:21:07;27.10;99.90
28761;DHT22;15917;50.014;8.352;2023-07-24T13:23:33;27.10;99.90
28761;DHT22;15917;50.014;8.352;2023-07-24T13:25:59;27.30;99.90
28761;DHT22;15917;50.014;8.352;2023-07-24T13:28:24;27.70;99.90
28761;DHT22;15917;50.014;8.352;2023-07-24T13:30:50;28.00;99.90
28761;DHT22;15917;50.014;8.352;2023-07-24T13:33:15;28.00;99.90
28761;DHT22;15917;50.014;8.352;2023-07-24T13:35:41;27.50;99.90
28761;DHT22;15917;50.014;8.352;2023-07-24T13:38:07;27.00;99.90
28761;DHT22;15917;50.014;8.352;2023-07-24T13:40:36;26.50;99.90
28761;DHT22;15917;50.014;8.352;2023-07-24T13:43:02;26.20;99.90
28761;DHT22;15917;50.014;8.352;2023-07-24T13:45:28;25.80;99.90
28761;DHT22;15917;50.014;8.352;2023-07-24T13:47:54;25.40;99.90
28761;DHT22;15917;50.014;8.352;2023-07-24T13:50:38;25.30;99.90
28761;DHT22;15917;50.014;8.352;2023-07-24T13:53:04;25.50;99.90
28761;DHT22;15917;50.014;8.352;2023-07-24T13:55:29;25.60;99.90
28761;DHT22;15917;50.014;8.352;2023-07-24T13:57:55;25.90;99.90
28761;DHT22;15917;50.014;8.352;2023-07-24T14:00:20;26.10;99.90
28761;DHT22;15917;50.014;8.352;2023-07-24T14:02:46;26.20;99.90
28761;DHT22;15917;50.014;8.352;2023-07-24T14:05:12;26.20;99.90
28761;DHT22;15917;50.014;8.352;2023-07-24T14:07:37;26.30;99.90
28761;DHT22;15917;50.014;8.352;2023-07-24T14:10:03;26.40;99.90
28761;DHT22;15917;50.014;8.352;2023-07-24T14:12:29;26.50;99.90
28761;DHT22;15917;50.014;8.352;2023-07-24T14:14:54;26.50;99.90
28761;DHT22;15917;50.014;8.352;2023-07-24T14:17:20;26.60;99.90
28761;DHT22;15917;50.014;8.352;2023-07-24T14:19:45;26.60;99.90
28761;DHT22;15917;50.014;8.352;2023-07-24T14:22:11;26.70;99.90
28761;DHT22;15917;50.014;8.352;2023-07-24T14:24:37;26.90;99.90
28761;DHT22;15917;50.014;8.352;2023-07-24T14:27:02;27.10;99.90
28761;DHT22;15917;50.014;8.352;2023-07-24T14:29:28;27.20;99.90
28761;DHT22;15917;50.014;8.352;2023-07-24T14:31:53;27.30;99.90
28761;DHT22;15917;50.014;8.352;2023-07-24T14:34:20;27.30;99.90
28761;DHT22;15917;50.014;8.352;2023-07-24T14:36:45;27.10;99.90
28761;DHT22;15917;50.014;8.352;2023-07-24T14:39:11;26.70;99.90
28761;DHT22;15917;50.014;8.352;2023-07-24T14:41:36;26.50;99.90
28761;DHT22;15917;50.014;8.352;2023-07-24T14:44:02;26.70;99.90
28761;DHT22;15917;50.014;8.352;2023-07-24T14:46:27;26.90;99.90
28761;DHT22;15917;50.014;8.352;2023-07-24T14:48:53;27.00;99.90
28761;DHT22;15917;50.014;8.352;2023-07-24T14:51:19;27.20;99.90
28761;DHT22;15917;50.014;8.352;2023-07-24T14:53:44;27.40;99.90
28761;DHT22;15917;50.014;8.352;2023-07-24T14:56:10;27.10;99.90
28761;DHT22;15917;50.014;8.352;2023-07-24T14:58:35;26.70;99.90
28761;DHT22;15917;50.014;8.352;2023-07-24T15:01:01;26.50;99.90
28761;DHT22;15917;50.014;8.352;2023-07-24T15:03:27;26.30;99.90
28761;DHT22;15917;50.014;8.352;2023-07-24T15:05:52;26.20;99.90
28761;DHT22;15917;50.014;8.352;2023-07-24T15:08:18;26.00;99.90
28761;DHT22;15917;50.014;8.352;2023-07-24T15:10:44;25.90;99.90
28761;DHT22;15917;50.014;8.352;2023-07-24T15:13:10;25.70;99.90
28761;DHT22;15917;50.014;8.352;2023-07-24T15:15:36;25.40;99.90
28761;DHT22;15917;50.014;8.352;2023-07-24T15:18:02;25.10;99.90
28761;DHT22;15917;50.014;8.352;2023-07-24T15:20:28;24.60;99.90
28761;DHT22;15917;50.014;8.352;2023-07-24T15:22:53;24.00;99.90
28761;DHT22;15917;50.014;8.352;2023-07-24T15:25:19;23.40;99.90
28761;DHT22;15917;50.014;8.352;2023-07-24T15:27:45;23.10;99.90
28761;DHT22;15917;50.014;8.352;2023-07-24T15:30:11;22.50;99.90